createdAt,value
2018-09-19T00:00:25.041Z,21.46
2018-09-19T00:01:56.615Z,21.47
2018-09-19T00:04:59.860Z,21.65
2018-09-19T00:06:31.345Z,21.61
2018-09-19T00:08:02.906Z,21.62
2018-09-19T00:09:34.486Z,21.50
2018-09-19T00:11:06.152Z,21.47
2018-09-19T00:12:37.625Z,21.47
2018-09-19T00:14:09.206Z,21.31
2018-09-19T00:17:12.346Z,21.42
2018-09-19T00:18:43.917Z,21.42
2018-09-19T00:20:15.580Z,21.43
2018-09-19T00:21:47.393Z,21.43
2018-09-19T00:23:18.636Z,21.52
2018-09-19T00:24:50.213Z,21.54
2018-09-19T00:26:21.784Z,21.56
2018-09-19T00:27:53.356Z,21.44
2018-09-19T00:29:25.832Z,21.46
2018-09-19T00:30:57.033Z,21.34
2018-09-19T00:32:28.076Z,21.49
2018-09-19T00:33:59.651Z,21.50
2018-09-19T00:35:31.321Z,21.44
2018-09-19T00:37:02.797Z,21.44
2018-09-19T00:38:34.366Z,21.42
2018-09-19T00:40:05.942Z,21.35
2018-09-19T00:41:37.513Z,21.38
2018-09-19T00:43:09.089Z,21.40
2018-09-19T00:44:40.658Z,21.37
2018-09-19T00:46:12.232Z,21.29
2018-09-19T00:47:44.210Z,21.29
2018-09-19T00:49:15.391Z,21.27
2018-09-19T00:50:46.950Z,21.27
2018-09-19T00:52:18.524Z,21.35
2018-09-19T00:53:50.096Z,21.31
2018-09-19T00:55:21.674Z,21.29
2018-09-19T00:56:53.448Z,21.13
2018-09-19T00:58:24.822Z,21.10
2018-09-19T00:59:56.389Z,21.07
2018-09-19T01:01:27.964Z,21.09
2018-09-19T01:02:59.542Z,21.09
2018-09-19T01:06:02.931Z,21.13
2018-09-19T01:07:34.256Z,21.09
2018-09-19T01:09:05.825Z,21.10
2018-09-19T01:10:37.398Z,21.06
2018-09-19T01:12:09.272Z,21.12
2018-09-19T01:15:12.116Z,21.07
2018-09-19T01:16:43.690Z,21.10
2018-09-19T01:18:15.263Z,20.97
2018-09-19T01:19:47.353Z,21.10
2018-09-19T01:21:18.408Z,21.10
2018-09-19T01:22:49.981Z,20.99
2018-09-19T01:24:21.653Z,20.98
2018-09-19T01:25:53.128Z,20.85
2018-09-19T01:27:24.698Z,20.74
2018-09-19T01:28:56.272Z,20.73
2018-09-19T01:30:27.845Z,20.73
2018-09-19T01:31:59.417Z,20.70
2018-09-19T01:33:30.990Z,20.67
2018-09-19T01:35:02.562Z,20.70
2018-09-19T01:36:34.135Z,20.67
2018-09-19T01:38:05.708Z,20.70
2018-09-19T01:39:37.282Z,20.67
2018-09-19T01:41:08.853Z,20.61
2018-09-19T01:42:40.526Z,20.58
2018-09-19T01:44:11.998Z,20.58
2018-09-19T01:45:43.575Z,20.67
2018-09-19T01:47:15.144Z,20.55
2018-09-19T01:48:46.718Z,20.57
2018-09-19T01:50:18.292Z,20.41
2018-09-19T01:51:49.864Z,20.43
2018-09-19T01:53:21.465Z,20.26
2018-09-19T01:54:53.014Z,20.43
2018-09-19T01:56:24.580Z,20.39
2018-09-19T01:57:56.156Z,20.39
2018-09-19T01:59:27.726Z,20.29
2018-09-19T02:00:59.418Z,20.16
2018-09-19T02:02:30.871Z,20.16
2018-09-19T02:04:02.448Z,20.14
2018-09-19T02:05:34.023Z,20.20
2018-09-19T02:07:05.755Z,20.11
2018-09-19T02:08:37.165Z,20.10
2018-09-19T02:10:08.735Z,20.05
2018-09-19T02:11:40.315Z,20.01
2018-09-19T02:13:11.880Z,19.94
2018-09-19T02:14:43.472Z,19.80
2018-09-19T02:16:15.027Z,19.86
2018-09-19T02:17:46.598Z,19.76
2018-09-19T02:19:18.273Z,19.78
2018-09-19T02:20:49.744Z,19.80
2018-09-19T02:22:21.332Z,19.83
2018-09-19T02:23:52.890Z,19.87
2018-09-19T02:25:24.467Z,19.87
2018-09-19T02:26:56.546Z,20.01
2018-09-19T02:28:27.652Z,19.92
2018-09-19T02:29:59.188Z,19.77
2018-09-19T02:31:30.751Z,19.77
2018-09-19T02:33:02.335Z,19.69
2018-09-19T02:34:33.895Z,19.71
2018-09-19T02:36:05.487Z,19.66
2018-09-19T02:37:37.249Z,19.68
2018-09-19T02:39:08.616Z,19.69
2018-09-19T02:40:40.188Z,19.59
2018-09-19T02:42:11.797Z,19.71
2018-09-19T02:43:43.871Z,19.66
2018-09-19T02:45:14.905Z,19.61
2018-09-19T02:46:46.478Z,19.73
2018-09-19T02:48:18.049Z,19.66
2018-09-19T02:49:49.625Z,19.63
2018-09-19T02:51:21.210Z,19.56
2018-09-19T02:52:53.070Z,19.59
2018-09-19T02:54:24.353Z,19.71
2018-09-19T02:55:56.310Z,19.56
2018-09-19T02:57:27.482Z,19.65
2018-09-19T02:58:59.055Z,19.46
2018-09-19T03:00:30.626Z,19.58
2018-09-19T03:02:02.203Z,19.51
2018-09-19T03:03:33.833Z,19.41
2018-09-19T03:05:05.345Z,19.50
2018-09-19T03:06:36.927Z,19.41
2018-09-19T03:08:08.590Z,19.32
2018-09-19T03:11:11.634Z,19.29
2018-09-19T03:12:43.208Z,19.33
2018-09-19T03:14:15.237Z,19.28
2018-09-19T03:15:46.653Z,19.29
2018-09-19T03:17:18.028Z,19.19
2018-09-19T03:18:49.494Z,19.33
2018-09-19T03:20:21.086Z,19.32
2018-09-19T03:21:52.639Z,19.32
2018-09-19T03:23:24.210Z,19.25
2018-09-19T03:26:27.659Z,19.22
2018-09-19T03:27:58.928Z,19.25
2018-09-19T03:29:30.499Z,19.18
2018-09-19T03:31:02.069Z,19.13
2018-09-19T03:32:33.745Z,19.11
2018-09-19T03:34:05.259Z,19.00
2018-09-19T03:35:36.786Z,19.06
2018-09-19T03:37:08.360Z,19.16
2018-09-19T03:38:40.030Z,19.13
2018-09-19T03:40:11.502Z,19.13
2018-09-19T03:41:43.074Z,19.13
2018-09-19T03:43:14.650Z,19.00
2018-09-19T03:44:46.218Z,19.00
2018-09-19T03:46:17.796Z,19.23
2018-09-19T03:47:49.363Z,19.18
2018-09-19T03:49:20.932Z,19.31
2018-09-19T03:52:24.177Z,19.21
2018-09-19T03:53:55.651Z,19.13
2018-09-19T03:55:27.221Z,19.02
2018-09-19T03:56:58.794Z,19.02
2018-09-19T03:58:30.666Z,19.06
2018-09-19T04:00:01.939Z,19.06
2018-09-19T04:01:33.511Z,18.87
2018-09-19T04:03:05.083Z,18.85
2018-09-19T04:04:36.656Z,19.04
2018-09-19T04:06:08.226Z,18.99
2018-09-19T04:07:39.800Z,19.00
2018-09-19T04:09:11.375Z,19.00
2018-09-19T04:10:43.145Z,19.00
2018-09-19T04:12:14.516Z,19.07
2018-09-19T04:13:46.092Z,19.04
2018-09-19T04:15:17.668Z,19.04
2018-09-19T04:16:49.233Z,18.92
2018-09-19T04:18:20.802Z,18.94
2018-09-19T04:19:52.375Z,18.84
2018-09-19T04:21:23.946Z,18.67
2018-09-19T04:22:55.519Z,18.72
2018-09-19T04:24:27.090Z,18.73
2018-09-19T04:25:58.662Z,18.62
2018-09-19T04:27:30.234Z,18.78
2018-09-19T04:29:01.907Z,18.75
2018-09-19T04:30:33.378Z,18.84
2018-09-19T04:32:04.968Z,18.58
2018-09-19T04:33:36.577Z,18.47
2018-09-19T04:35:08.100Z,18.52
2018-09-19T04:36:39.666Z,18.60
2018-09-19T04:38:11.237Z,18.55
2018-09-19T04:39:42.814Z,18.48
2018-09-19T04:41:14.484Z,18.60
2018-09-19T04:42:45.957Z,18.55
2018-09-19T04:44:17.524Z,18.45
2018-09-19T04:45:49.105Z,18.41
2018-09-19T04:47:20.803Z,18.36
2018-09-19T04:50:23.817Z,18.39
2018-09-19T04:51:55.387Z,18.15
2018-09-19T04:53:26.957Z,18.11
2018-09-19T04:54:58.536Z,18.03
2018-09-19T04:56:30.102Z,18.25
2018-09-19T04:58:01.672Z,18.37
2018-09-19T04:59:33.543Z,18.57
2018-09-19T05:01:04.815Z,18.75
2018-09-19T05:02:36.387Z,18.69
2018-09-19T05:04:07.968Z,18.37
2018-09-19T05:05:39.643Z,18.51
2018-09-19T05:07:11.155Z,18.48
2018-09-19T05:08:42.673Z,18.48
2018-09-19T05:10:14.251Z,18.47
2018-09-19T05:11:45.919Z,18.23
2018-09-19T05:13:17.387Z,18.39
2018-09-19T05:14:48.977Z,18.52
2018-09-19T05:16:20.530Z,18.57
2018-09-19T05:17:52.103Z,18.21
2018-09-19T05:19:23.674Z,18.03
2018-09-19T05:20:55.245Z,18.18
2018-09-19T05:22:26.818Z,18.10
2018-09-19T05:23:58.489Z,18.32
2018-09-19T05:25:29.962Z,18.39
2018-09-19T05:27:01.532Z,18.39
2018-09-19T05:28:33.104Z,18.42
2018-09-19T05:30:04.976Z,18.48
2018-09-19T05:31:36.255Z,18.25
2018-09-19T05:33:07.821Z,18.18
2018-09-19T05:34:39.390Z,18.39
2018-09-19T05:36:10.963Z,18.51
2018-09-19T05:39:14.104Z,18.41
2018-09-19T05:40:45.678Z,18.35
2018-09-19T05:42:17.499Z,18.29
2018-09-19T05:43:48.819Z,18.25
2018-09-19T05:45:20.391Z,18.08
2018-09-19T05:46:51.964Z,18.48
2018-09-19T05:48:23.834Z,18.50
2018-09-19T05:49:55.111Z,18.30
2018-09-19T05:51:26.714Z,18.17
2018-09-19T05:52:58.253Z,18.02
2018-09-19T05:54:29.847Z,17.82
2018-09-19T05:56:01.393Z,18.63
2018-09-19T05:57:32.964Z,18.33
2018-09-19T05:59:04.535Z,18.18
2018-09-19T06:00:36.507Z,18.37
2018-09-19T06:02:07.677Z,18.23
2018-09-19T06:03:39.249Z,18.29
2018-09-19T06:05:10.908Z,18.17
2018-09-19T06:06:42.391Z,18.02
2018-09-19T06:08:13.962Z,18.00
2018-09-19T06:09:45.535Z,18.12
2018-09-19T06:11:17.112Z,17.99
2018-09-19T06:12:48.821Z,18.10
2018-09-19T06:14:20.248Z,18.02
2018-09-19T06:15:51.875Z,18.25
2018-09-19T06:17:23.397Z,18.10
2018-09-19T06:18:55.667Z,18.14
2018-09-19T06:20:26.534Z,18.17
2018-09-19T06:21:58.105Z,18.27
2018-09-19T06:23:29.677Z,18.48
2018-09-19T06:25:01.248Z,18.36
2018-09-19T06:26:32.818Z,18.39
2018-09-19T06:28:04.390Z,18.39
2018-09-19T06:29:35.961Z,18.54
2018-09-19T06:31:07.540Z,18.60
2018-09-19T06:32:39.105Z,18.52
2018-09-19T06:34:10.675Z,18.51
2018-09-19T06:35:42.246Z,18.60
2018-09-19T06:37:13.924Z,18.75
2018-09-19T06:38:45.389Z,18.69
2018-09-19T06:40:16.993Z,18.65
2018-09-19T06:41:48.531Z,18.76
2018-09-19T06:43:20.203Z,18.60
2018-09-19T06:44:51.676Z,18.58
2018-09-19T06:46:23.249Z,18.85
2018-09-19T06:47:54.815Z,18.67
2018-09-19T06:49:26.688Z,18.90
2018-09-19T06:50:57.958Z,18.91
2018-09-19T06:52:29.631Z,19.02
2018-09-19T06:54:01.100Z,18.94
2018-09-19T06:55:32.772Z,18.82
2018-09-19T06:57:04.243Z,18.80
2018-09-19T06:58:35.817Z,18.69
2018-09-19T07:00:07.387Z,18.66
2018-09-19T07:01:38.959Z,18.70
2018-09-19T07:04:42.103Z,18.78
2018-09-19T07:06:13.671Z,18.78
2018-09-19T07:07:45.547Z,18.78
2018-09-19T07:09:16.814Z,18.73
2018-09-19T07:10:48.387Z,18.78
2018-09-19T07:12:19.989Z,18.82
2018-09-19T07:13:51.627Z,18.70
2018-09-19T07:15:23.100Z,18.62
2018-09-19T07:16:54.671Z,18.67
2018-09-19T07:18:26.241Z,18.67
2018-09-19T07:19:58.119Z,18.55
2018-09-19T07:21:29.384Z,18.63
2018-09-19T07:23:00.960Z,18.78
2018-09-19T07:24:32.526Z,18.70
2018-09-19T07:26:04.100Z,18.66
2018-09-19T07:27:35.675Z,18.76
2018-09-19T07:29:07.243Z,18.84
2018-09-19T07:30:38.816Z,18.73
2018-09-19T07:32:10.483Z,18.67
2018-09-19T07:33:41.955Z,18.67
2018-09-19T07:35:13.526Z,18.66
2018-09-19T07:36:45.097Z,18.80
2018-09-19T07:38:16.669Z,18.73
2018-09-19T07:39:48.245Z,18.78
2018-09-19T07:41:19.819Z,18.72
2018-09-19T07:42:51.383Z,18.65
2018-09-19T07:44:23.055Z,18.73
2018-09-19T07:45:54.525Z,18.76
2018-09-19T07:47:26.096Z,18.66
2018-09-19T07:48:57.668Z,18.63
2018-09-19T07:50:29.661Z,18.69
2018-09-19T07:52:00.812Z,18.76
2018-09-19T07:53:32.386Z,18.66
2018-09-19T07:55:03.955Z,18.69
2018-09-19T07:56:35.525Z,18.69
2018-09-19T07:58:07.111Z,18.70
2018-09-19T07:59:38.667Z,18.69
2018-09-19T08:01:10.314Z,18.70
2018-09-19T08:02:41.811Z,18.63
2018-09-19T08:04:13.384Z,18.62
2018-09-19T08:05:44.954Z,18.66
2018-09-19T08:07:16.523Z,18.58
2018-09-19T08:08:48.245Z,18.58
2018-09-19T08:10:19.668Z,18.60
2018-09-19T08:11:51.258Z,18.55
2018-09-19T08:13:22.810Z,18.52
2018-09-19T08:14:54.535Z,18.55
2018-09-19T08:16:25.952Z,18.41
2018-09-19T08:17:57.523Z,18.50
2018-09-19T08:19:29.098Z,18.45
2018-09-19T08:21:00.967Z,18.48
2018-09-19T08:22:32.279Z,18.54
2018-09-19T08:24:03.810Z,18.50
2018-09-19T08:25:35.380Z,18.42
2018-09-19T08:27:07.052Z,18.32
2018-09-19T08:28:38.523Z,18.17
2018-09-19T08:30:10.098Z,18.18
2018-09-19T08:31:41.674Z,18.35
2018-09-19T08:33:13.237Z,18.02
2018-09-19T08:34:44.809Z,17.90
2018-09-19T08:36:16.427Z,17.79
2018-09-19T08:37:47.950Z,17.79
2018-09-19T08:39:19.524Z,17.77
2018-09-19T08:40:51.093Z,17.66
2018-09-19T08:42:22.666Z,17.82
2018-09-19T08:43:54.254Z,17.78
2018-09-19T08:45:26.063Z,17.75
2018-09-19T08:46:57.410Z,17.82
2018-09-19T08:48:28.950Z,17.87
2018-09-19T08:50:00.593Z,17.71
2018-09-19T08:51:32.392Z,17.87
2018-09-19T08:53:03.673Z,17.96
2018-09-19T08:54:35.236Z,18.03
2018-09-19T08:56:06.805Z,17.96
2018-09-19T08:57:38.409Z,17.75
2018-09-19T08:59:10.179Z,17.68
2018-09-19T09:00:41.837Z,17.58
2018-09-19T09:02:13.099Z,17.36
2018-09-19T09:03:45.391Z,17.31
2018-09-19T09:05:16.586Z,17.30
2018-09-19T09:08:19.914Z,17.70
2018-09-19T09:09:50.944Z,17.68
2018-09-19T09:11:22.525Z,17.51
2018-09-19T09:14:25.899Z,17.97
2018-09-19T09:15:57.344Z,18.21
2018-09-19T09:17:28.800Z,18.73
2018-09-19T09:19:00.573Z,18.85
2018-09-19T09:20:32.036Z,19.13
2018-09-19T09:22:03.943Z,19.46
2018-09-19T09:23:35.086Z,19.62
2018-09-19T09:25:06.659Z,19.59
2018-09-19T09:26:38.262Z,19.54
2018-09-19T09:28:09.804Z,19.83
2018-09-19T09:29:41.433Z,20.29
2018-09-19T09:32:44.573Z,20.29
2018-09-19T09:34:16.156Z,19.50
2018-09-19T09:35:47.701Z,19.46
2018-09-19T09:37:19.257Z,19.95
2018-09-19T09:38:50.961Z,20.01
2018-09-19T09:40:23.063Z,20.21
2018-09-19T09:41:54.012Z,20.55
2018-09-19T09:43:25.897Z,21.13
2018-09-19T09:44:57.137Z,21.82
2018-09-19T09:46:28.785Z,22.47
2018-09-19T09:48:00.417Z,22.58
2018-09-19T09:49:31.934Z,22.30
2018-09-19T09:51:03.425Z,22.33
2018-09-19T09:52:34.983Z,22.40
2018-09-19T09:54:06.595Z,22.55
2018-09-19T09:57:09.761Z,22.58
2018-09-19T09:58:41.385Z,22.24
2018-09-19T10:00:13.008Z,22.36
2018-09-19T10:03:16.017Z,22.88
2018-09-19T10:04:48.001Z,22.80
2018-09-19T10:06:19.218Z,22.92
2018-09-19T10:07:50.944Z,22.90
2018-09-19T10:09:22.325Z,23.02
2018-09-19T10:12:25.675Z,23.09
2018-09-19T10:13:57.050Z,23.16
2018-09-19T10:15:28.829Z,22.97
2018-09-19T10:17:00.206Z,23.22
2018-09-19T10:18:32.284Z,23.35
2018-09-19T10:20:03.662Z,23.27
2018-09-19T10:23:06.717Z,23.17
2018-09-19T10:24:38.091Z,23.23
2018-09-19T10:26:09.667Z,23.47
2018-09-19T10:27:41.247Z,23.39
2018-09-19T10:29:12.831Z,23.02
2018-09-19T10:30:44.439Z,23.50
2018-09-19T10:32:15.981Z,23.68
2018-09-19T10:33:48.213Z,23.87
2018-09-19T10:35:19.168Z,23.53
2018-09-19T10:38:22.399Z,23.22
2018-09-19T10:42:57.335Z,24.00
2018-09-19T10:44:28.604Z,23.76
2018-09-19T10:46:00.491Z,24.10
2018-09-19T10:47:32.212Z,24.02
2018-09-19T10:49:03.364Z,24.62
2018-09-19T10:50:34.944Z,24.55
2018-09-19T10:52:06.709Z,24.61
2018-09-19T10:53:38.118Z,23.98
2018-09-19T10:56:41.714Z,24.09
2018-09-19T10:58:12.851Z,24.27
2018-09-19T10:59:44.435Z,24.35
2018-09-19T11:01:16.214Z,24.50
2018-09-19T11:02:47.604Z,24.81
2018-09-19T11:04:19.162Z,25.10
2018-09-19T11:05:51.012Z,25.20
2018-09-19T11:07:22.350Z,25.20
2018-09-19T11:08:54.122Z,24.98
2018-09-19T11:10:25.585Z,24.99
2018-09-19T11:11:57.231Z,25.02
2018-09-19T11:13:28.926Z,25.06
2018-09-19T11:15:00.486Z,25.23
2018-09-19T11:16:31.779Z,25.17
2018-09-19T11:18:03.433Z,25.28
2018-09-19T11:19:35.278Z,24.78
2018-09-19T11:21:06.772Z,24.80
2018-09-19T11:24:09.873Z,25.17
2018-09-19T11:27:12.855Z,25.50
2018-09-19T11:30:16.402Z,26.32
2018-09-19T11:31:47.822Z,25.85
2018-09-19T11:33:19.333Z,25.43
2018-09-19T11:34:50.841Z,25.85
2018-09-19T11:37:54.257Z,25.18
2018-09-19T11:39:25.597Z,25.08
2018-09-19T11:40:57.237Z,25.20
2018-09-19T11:42:28.713Z,25.47
2018-09-19T11:44:00.433Z,25.39
2018-09-19T11:45:32.546Z,25.46
2018-09-19T11:47:04.311Z,25.18
2018-09-19T11:48:34.979Z,25.75
2018-09-19T11:50:06.558Z,25.72
2018-09-19T11:51:38.446Z,25.67
2018-09-19T11:53:09.720Z,25.87
2018-09-19T11:57:44.467Z,25.70
2018-09-19T11:59:16.051Z,25.90
2018-09-19T12:00:47.662Z,26.25
2018-09-19T12:02:19.417Z,26.23
2018-09-19T12:03:50.904Z,26.02
2018-09-19T12:05:22.429Z,25.60
2018-09-19T12:06:54.171Z,25.94
2018-09-19T12:08:25.851Z,25.87
2018-09-19T12:09:58.279Z,26.07
2018-09-19T12:11:28.709Z,26.10
2018-09-19T12:13:00.312Z,26.29
2018-09-19T12:17:35.344Z,26.51
2018-09-19T12:19:06.624Z,26.40
2018-09-19T12:20:38.208Z,26.76
2018-09-19T12:22:09.791Z,26.77
2018-09-19T12:23:42.180Z,27.21
2018-09-19T12:25:13.260Z,26.30
2018-09-19T12:26:45.071Z,25.97
2018-09-19T12:28:16.124Z,25.92
2018-09-19T12:29:48.338Z,26.37
2018-09-19T12:31:19.289Z,26.40
2018-09-19T12:32:50.892Z,26.80
2018-09-19T12:34:22.456Z,27.21
2018-09-19T12:35:54.038Z,26.70
2018-09-19T12:38:57.713Z,26.67
2018-09-19T12:40:28.826Z,26.91
2018-09-19T12:42:00.374Z,26.43
2018-09-19T12:45:03.542Z,26.21
2018-09-19T12:46:35.132Z,26.55
2018-09-19T12:49:38.595Z,26.72
2018-09-19T12:52:41.743Z,27.12
2018-09-19T12:54:13.043Z,26.70
2018-09-19T12:55:44.630Z,27.04
2018-09-19T12:57:16.515Z,26.43
2018-09-19T13:00:19.383Z,26.62
2018-09-19T13:01:50.966Z,27.37
2018-09-19T13:03:22.547Z,26.88
2018-09-19T13:06:25.921Z,27.04
2018-09-19T13:07:57.399Z,27.46
2018-09-19T13:09:30.023Z,27.41
2018-09-19T13:11:00.554Z,27.90
2018-09-19T13:14:03.838Z,27.10
2018-09-19T13:15:35.220Z,27.14
2018-09-19T13:17:07.008Z,27.63
2018-09-19T13:18:38.605Z,27.77
2018-09-19T13:20:10.512Z,27.66
2018-09-19T13:21:41.572Z,27.00
2018-09-19T13:23:13.142Z,27.07
2018-09-19T13:24:44.729Z,27.10
2018-09-19T13:26:16.412Z,27.49
2018-09-19T13:29:19.542Z,28.30
2018-09-19T13:30:51.074Z,28.29
2018-09-19T13:32:22.954Z,27.75
2018-09-19T13:33:54.234Z,27.46
2018-09-19T13:36:57.707Z,27.85
2018-09-19T13:38:29.293Z,28.14
2018-09-19T13:41:32.482Z,28.37
2018-09-19T13:44:35.431Z,27.27
2018-09-19T13:46:07.229Z,27.96
2018-09-19T13:49:10.092Z,27.87
2018-09-19T13:50:41.672Z,27.59
2018-09-19T13:52:13.983Z,27.18
2018-09-19T13:53:44.834Z,27.54
2018-09-19T13:55:16.425Z,27.32
2018-09-19T13:58:19.895Z,28.17
2018-09-19T13:59:51.233Z,28.44
2018-09-19T14:01:23.363Z,28.33
2018-09-19T14:05:57.702Z,28.31
2018-09-19T14:07:29.298Z,28.56
2018-09-19T14:09:00.681Z,29.24
2018-09-19T14:10:32.273Z,28.59
2018-09-19T14:12:04.057Z,29.04
2018-09-19T14:13:35.435Z,28.67
2018-09-19T14:15:07.040Z,28.78
2018-09-19T14:16:38.683Z,28.77
2018-09-19T14:18:10.193Z,29.45
2018-09-19T14:19:41.846Z,29.05
2018-09-19T14:21:13.366Z,28.96
2018-09-19T14:22:44.953Z,29.14
2018-09-19T14:24:16.944Z,28.09
2018-09-19T14:28:52.436Z,28.96
2018-09-19T14:30:22.885Z,28.59
2018-09-19T14:31:54.532Z,28.15
2018-09-19T14:33:26.055Z,29.27
2018-09-19T14:34:57.694Z,29.43
2018-09-19T14:36:29.669Z,29.02
2018-09-19T14:38:00.812Z,28.46
2018-09-19T14:41:03.985Z,28.76
2018-09-19T14:42:35.720Z,28.86
2018-09-19T14:44:07.209Z,28.89
2018-09-19T14:45:38.740Z,28.54
2018-09-19T14:47:10.630Z,29.73
2018-09-19T14:48:41.983Z,29.70
2018-09-19T14:50:13.497Z,29.31
2018-09-19T14:51:45.098Z,28.51
2018-09-19T14:54:49.747Z,28.77
2018-09-19T14:56:19.840Z,29.53
2018-09-19T14:57:51.576Z,29.14
2018-09-19T14:59:23.233Z,30.04
2018-09-19T15:00:54.700Z,30.02
2018-09-19T15:02:26.719Z,29.52
2018-09-19T15:05:29.365Z,29.63
2018-09-19T15:07:00.950Z,29.37
2018-09-19T15:08:32.539Z,30.26
2018-09-19T15:10:04.328Z,30.53
2018-09-19T15:11:35.713Z,30.34
2018-09-19T15:14:38.890Z,30.61
2018-09-19T15:19:14.186Z,29.83
2018-09-19T15:20:45.534Z,29.46
2018-09-19T15:22:16.858Z,29.41
2018-09-19T15:25:20.010Z,29.16
2018-09-19T15:26:51.596Z,30.29
2018-09-19T15:28:23.249Z,29.67
2018-09-19T15:29:55.081Z,28.68
2018-09-19T15:31:26.563Z,29.05
2018-09-19T15:32:57.944Z,28.90
2018-09-19T15:34:29.808Z,28.89
2018-09-19T15:36:01.122Z,29.95
2018-09-19T15:37:32.806Z,30.75
2018-09-19T15:40:36.632Z,29.49
2018-09-19T15:42:07.459Z,29.67
2018-09-19T15:43:40.059Z,30.32
2018-09-19T15:45:10.630Z,30.72
2018-09-19T15:46:43.254Z,30.26
2018-09-19T15:48:14.784Z,30.95
2018-09-19T15:49:45.393Z,30.72
2018-09-19T15:51:17.104Z,30.37
2018-09-19T15:52:48.584Z,29.87
2018-09-19T15:54:20.154Z,29.67
2018-09-19T15:55:52.198Z,30.05
2018-09-19T15:57:23.576Z,30.38
2018-09-19T15:58:55.336Z,31.31
2018-09-19T16:00:26.813Z,31.21
2018-09-19T16:01:58.327Z,31.07
2018-09-19T16:03:29.683Z,31.62
2018-09-19T16:05:01.439Z,32.15
2018-09-19T16:06:33.220Z,32.35
2018-09-19T16:08:04.466Z,32.13
2018-09-19T16:09:36.093Z,30.16
2018-09-19T16:11:07.965Z,30.92
2018-09-19T16:12:39.446Z,30.94
2018-09-19T16:14:10.934Z,31.29
2018-09-19T16:15:42.401Z,30.32
2018-09-19T16:17:14.292Z,30.92
2018-09-19T16:18:45.576Z,29.74
2018-09-19T16:21:48.752Z,30.29
2018-09-19T16:23:20.349Z,30.92
2018-09-19T16:26:23.515Z,30.92
2018-09-19T16:27:55.156Z,30.91
2018-09-19T16:29:27.913Z,30.86
2018-09-19T16:32:30.188Z,31.53
2018-09-19T16:34:01.482Z,31.38
2018-09-19T16:35:33.146Z,30.83
2018-09-19T16:37:04.698Z,30.91
2018-09-19T16:38:36.247Z,30.65
2018-09-19T16:40:08.425Z,29.64
2018-09-19T16:41:39.931Z,30.92
2018-09-19T16:44:42.573Z,31.48
2018-09-19T16:46:14.484Z,30.97
2018-09-19T16:47:45.950Z,30.42
2018-09-19T16:49:17.339Z,30.47
2018-09-19T16:50:48.924Z,30.49
2018-09-19T16:52:20.597Z,31.75
2018-09-19T16:53:52.398Z,32.15
2018-09-19T16:56:55.580Z,30.42
2018-09-19T16:59:58.806Z,30.38
2018-09-19T17:01:30.087Z,30.79
2018-09-19T17:03:01.647Z,31.86
2018-09-19T17:04:33.203Z,33.51
2018-09-19T17:06:04.838Z,32.87
2018-09-19T17:07:36.491Z,31.09
2018-09-19T17:09:08.062Z,30.75
2018-09-19T17:10:39.939Z,32.00
2018-09-19T17:12:11.376Z,32.00
2018-09-19T17:15:14.331Z,31.99
2018-09-19T17:16:46.098Z,32.70
2018-09-19T17:18:17.483Z,32.18
2018-09-19T17:19:49.070Z,32.10
2018-09-19T17:21:20.962Z,31.69
2018-09-19T17:22:52.246Z,32.10
2018-09-19T17:24:23.832Z,31.61
2018-09-19T17:25:55.625Z,31.46
2018-09-19T17:27:27.213Z,30.95
2018-09-19T17:28:58.906Z,30.97
2018-09-19T17:32:02.106Z,29.90
2018-09-19T17:36:36.582Z,30.34
2018-09-19T17:38:08.370Z,30.26
2018-09-19T17:39:39.716Z,30.32
2018-09-19T17:42:43.008Z,29.80
2018-09-19T17:45:46.948Z,31.14
2018-09-19T17:47:18.051Z,31.68
2018-09-19T17:48:50.173Z,31.41
2018-09-19T17:50:20.819Z,31.35
2018-09-19T17:51:52.686Z,31.47
2018-09-19T17:53:24.292Z,30.32
2018-09-19T17:54:55.861Z,29.73
2018-09-19T17:56:27.376Z,29.53
2018-09-19T17:57:59.120Z,29.41
2018-09-19T18:01:01.878Z,29.31
2018-09-19T18:02:33.486Z,29.43
2018-09-19T18:04:05.078Z,29.42
2018-09-19T18:05:37.033Z,29.82
2018-09-19T18:07:10.182Z,30.17
2018-09-19T18:08:40.050Z,30.19
2018-09-19T18:10:11.877Z,31.69
2018-09-19T18:11:42.959Z,31.23
2018-09-19T18:13:14.566Z,30.95
2018-09-19T18:14:46.639Z,29.85
2018-09-19T18:16:17.961Z,29.80
2018-09-19T18:17:49.347Z,31.34
2018-09-19T18:19:21.170Z,32.81
2018-09-19T18:20:52.680Z,32.44
2018-09-19T18:22:24.779Z,32.41
2018-09-19T18:23:55.721Z,31.35
2018-09-19T18:25:27.236Z,30.37
2018-09-19T18:26:58.799Z,30.89
2018-09-19T18:31:33.741Z,32.72
2018-09-19T18:33:05.132Z,33.37
2018-09-19T18:34:36.777Z,33.03
2018-09-19T18:36:08.436Z,32.94
2018-09-19T18:37:39.911Z,32.26
2018-09-19T18:39:13.431Z,32.47
2018-09-19T18:40:43.232Z,31.93
2018-09-19T18:42:15.035Z,32.62
2018-09-19T18:43:47.182Z,32.92
2018-09-19T18:45:18.826Z,32.94
2018-09-19T18:46:49.687Z,32.77
2018-09-19T18:48:20.977Z,33.11
2018-09-19T18:51:24.283Z,32.04
2018-09-19T18:52:56.464Z,31.58
2018-09-19T18:54:27.380Z,30.73
2018-09-19T18:55:59.140Z,30.47
2018-09-19T18:57:31.016Z,29.98
2018-09-19T18:59:02.510Z,30.46
2018-09-19T19:02:05.339Z,31.73
2018-09-19T19:03:37.536Z,31.95
2018-09-19T19:06:40.039Z,32.14
2018-09-19T19:08:11.830Z,32.21
2018-09-19T19:11:15.257Z,32.35
2018-09-19T19:12:46.410Z,33.00
2018-09-19T19:14:18.358Z,32.51
2018-09-19T19:15:49.493Z,32.70
2018-09-19T19:17:21.248Z,33.18
2018-09-19T19:18:52.821Z,33.47
2018-09-19T19:20:24.313Z,32.82
2018-09-19T19:23:27.417Z,31.93
2018-09-19T19:24:59.082Z,31.57
2018-09-19T19:26:30.911Z,31.36
2018-09-19T19:29:33.884Z,30.95
2018-09-19T19:31:05.583Z,30.23
2018-09-19T19:32:37.250Z,29.94
2018-09-19T19:34:08.780Z,29.15
2018-09-19T19:35:40.400Z,28.71
2018-09-19T19:37:11.774Z,28.39
2018-09-19T19:38:43.520Z,28.37
2018-09-19T19:40:15.048Z,28.58
2018-09-19T19:43:18.136Z,28.36
2018-09-19T19:44:49.897Z,28.59
2018-09-19T19:46:21.177Z,28.58
2018-09-19T19:47:52.798Z,28.37
2018-09-19T19:49:24.883Z,28.18
2018-09-19T19:50:56.200Z,28.30
2018-09-19T19:53:59.566Z,28.14
2018-09-19T19:55:31.331Z,27.97
2018-09-19T19:57:02.247Z,28.06
2018-09-19T19:58:34.110Z,28.12
2018-09-19T20:00:05.381Z,28.18
2018-09-19T20:01:37.254Z,27.97
2018-09-19T20:03:08.928Z,27.88
2018-09-19T20:07:43.889Z,28.04
2018-09-19T20:09:14.973Z,27.97
2018-09-19T20:10:46.512Z,27.99
2018-09-19T20:12:18.062Z,28.12
2018-09-19T20:16:53.144Z,27.85
2018-09-19T20:18:24.397Z,28.02
2018-09-19T20:19:55.984Z,27.92
2018-09-19T20:21:28.071Z,27.60
2018-09-19T20:22:59.677Z,27.51
2018-09-19T20:24:30.892Z,27.41
2018-09-19T20:27:34.118Z,27.41
2018-09-19T20:29:05.427Z,27.28
2018-09-19T20:30:37.472Z,27.28
2018-09-19T20:33:40.124Z,27.22
2018-09-19T20:36:43.621Z,27.10
2018-09-19T20:38:15.121Z,27.06
2018-09-19T20:39:46.651Z,26.94
2018-09-19T20:41:18.997Z,26.97
2018-09-19T20:42:49.703Z,26.91
2018-09-19T20:45:52.975Z,26.76
2018-09-19T20:47:24.336Z,26.72
2018-09-19T20:48:55.937Z,26.80
2018-09-19T20:51:59.075Z,26.84
2018-09-19T20:53:30.696Z,26.80
2018-09-19T20:56:33.871Z,26.73
2018-09-19T20:58:05.410Z,26.75
2018-09-19T20:59:36.973Z,26.76
2018-09-19T21:01:08.544Z,26.69
2018-09-19T21:02:40.978Z,26.63
2018-09-19T21:04:11.738Z,26.58
2018-09-19T21:05:43.540Z,26.45
2018-09-19T21:07:14.875Z,26.39
2018-09-19T21:08:46.956Z,26.32
2018-09-19T21:10:18.041Z,26.33
2018-09-19T21:11:49.612Z,26.28
2018-09-19T21:13:21.171Z,26.23
2018-09-19T21:16:24.951Z,26.12
2018-09-19T21:17:55.903Z,26.13
2018-09-19T21:19:27.485Z,26.10
2018-09-19T21:22:30.750Z,26.05
2018-09-19T21:24:02.216Z,25.98
2018-09-19T21:25:33.793Z,26.02
2018-09-19T21:27:05.371Z,26.10
2018-09-19T21:30:08.527Z,26.13
2018-09-19T21:31:40.120Z,26.10
2018-09-19T21:33:11.684Z,25.98
2018-09-19T21:34:43.261Z,25.99
2018-09-19T21:36:14.838Z,25.90
2018-09-19T21:37:46.414Z,25.90
2018-09-19T21:39:17.993Z,25.75
2018-09-19T21:40:49.629Z,25.70
2018-09-19T21:42:21.338Z,25.64
2018-09-19T21:43:52.870Z,25.57
2018-09-19T21:45:24.301Z,25.52
2018-09-19T21:46:55.879Z,25.51
2018-09-19T21:48:27.477Z,25.50
2018-09-19T21:49:59.035Z,25.40
2018-09-19T21:51:30.624Z,25.36
2018-09-19T21:53:02.207Z,25.32
2018-09-19T21:54:33.767Z,25.20
2018-09-19T21:56:05.342Z,25.10